createdAt,value
2018-12-18T00:02:18.835Z,101073.78
2018-12-18T00:04:50.581Z,101068.70
2018-12-18T00:07:37.203Z,101064.02
2018-12-18T00:10:08.489Z,101064.94
2018-12-18T00:12:38.140Z,101062.69
2018-12-18T00:15:07.880Z,101063.73
2018-12-18T00:17:37.596Z,101061.99
2018-12-18T00:20:07.448Z,101060.70
2018-12-18T00:22:37.219Z,101059.50
2018-12-18T00:25:07.045Z,101059.66
2018-12-18T00:27:36.715Z,101055.62
2018-12-18T00:30:06.703Z,101047.31
2018-12-18T00:32:36.555Z,101042.27
2018-12-18T00:35:06.433Z,101041.38
2018-12-18T00:37:36.143Z,101039.80
2018-12-18T00:40:06.347Z,101042.78
2018-12-18T00:42:36.105Z,101043.03
2018-12-18T00:45:06.264Z,101039.96
2018-12-18T00:47:36.028Z,101035.97
2018-12-18T00:50:06.098Z,101034.28
2018-12-18T00:52:35.755Z,101034.52
2018-12-18T00:55:05.667Z,101034.06
2018-12-18T00:57:35.476Z,101037.98
2018-12-18T01:00:06.376Z,101028.30
2018-12-18T01:02:36.091Z,101031.23
2018-12-18T01:05:06.040Z,101032.34
2018-12-18T01:07:35.699Z,101035.08
2018-12-18T01:10:05.865Z,101038.30
2018-12-18T01:12:35.557Z,101041.44
2018-12-18T01:15:05.599Z,101038.86
2018-12-18T01:17:35.334Z,101037.90
2018-12-18T01:20:05.900Z,101041.02
2018-12-18T01:22:35.778Z,101038.75
2018-12-18T01:25:05.958Z,101031.85
2018-12-18T01:27:35.600Z,101039.84
2018-12-18T01:30:05.510Z,101038.79
2018-12-18T01:32:35.399Z,101041.58
2018-12-18T01:35:05.375Z,101040.85
2018-12-18T01:37:35.129Z,101040.90
2018-12-18T01:40:06.239Z,101032.17
2018-12-18T01:42:35.891Z,101032.81
2018-12-18T01:45:05.632Z,101029.95
2018-12-18T01:47:35.331Z,101029.47
2018-12-18T01:50:05.314Z,101033.06
2018-12-18T01:52:34.976Z,101022.05
2018-12-18T01:55:06.385Z,101014.41
2018-12-18T01:57:36.057Z,101012.40
2018-12-18T02:00:06.004Z,101012.40
2018-12-18T02:02:36.904Z,101011.38
2018-12-18T02:05:06.764Z,101003.11
2018-12-18T02:07:36.592Z,101011.14
2018-12-18T02:10:06.425Z,101005.47
2018-12-18T02:12:36.186Z,101012.41
2018-12-18T02:15:06.008Z,101003.44
2018-12-18T02:17:35.867Z,101000.86
2018-12-18T02:20:07.046Z,100998.92
2018-12-18T02:22:36.817Z,101001.56
2018-12-18T02:25:06.558Z,100998.00
2018-12-18T02:27:36.202Z,101002.10
2018-12-18T02:30:06.588Z,101000.92
2018-12-18T02:32:36.323Z,101007.45
2018-12-18T02:35:06.350Z,101002.95
2018-12-18T02:37:36.107Z,101000.42
2018-12-18T02:40:06.624Z,100992.30
2018-12-18T02:42:36.400Z,100990.21
2018-12-18T02:45:06.645Z,100986.94
2018-12-18T02:47:36.405Z,100989.95
2018-12-18T02:50:06.678Z,100989.77
2018-12-18T02:52:36.498Z,100988.48
2018-12-18T02:55:06.284Z,100985.72
2018-12-18T02:57:36.048Z,100988.96
2018-12-18T03:00:06.764Z,100981.65
2018-12-18T03:02:38.441Z,100981.69
2018-12-18T03:05:08.442Z,100975.33
2018-12-18T03:07:38.244Z,100969.58
2018-12-18T03:10:08.059Z,100986.05
2018-12-18T03:12:37.893Z,100983.77
2018-12-18T03:15:07.684Z,100986.51
2018-12-18T03:17:37.388Z,100991.48
2018-12-18T03:20:07.880Z,100987.98
2018-12-18T03:22:37.690Z,100986.37
2018-12-18T03:25:07.441Z,100986.31
2018-12-18T03:27:37.276Z,100987.77
2018-12-18T03:30:07.238Z,100983.22
2018-12-18T03:32:41.277Z,100987.97
2018-12-18T03:35:10.997Z,100986.33
2018-12-18T03:37:40.761Z,100990.46
2018-12-18T03:40:10.618Z,100983.70
2018-12-18T03:42:40.572Z,100983.69
2018-12-18T03:45:10.417Z,100984.26
2018-12-18T03:47:40.388Z,100988.42
2018-12-18T03:50:10.254Z,100999.95
2018-12-18T03:52:39.983Z,100990.58
2018-12-18T03:55:09.653Z,100989.72
2018-12-18T03:57:41.400Z,100996.82
2018-12-18T04:00:11.483Z,100991.20
2018-12-18T04:02:42.340Z,100987.58
2018-12-18T04:05:12.122Z,100987.61
2018-12-18T04:07:41.901Z,100991.41
2018-12-18T04:10:11.534Z,100987.03
2018-12-18T04:12:41.301Z,100984.33
2018-12-18T04:15:10.979Z,100985.11
2018-12-18T04:17:40.646Z,100987.27
2018-12-18T04:20:10.317Z,100986.48
2018-12-18T04:22:41.030Z,100991.84
2018-12-18T04:25:10.722Z,100988.09
2018-12-18T04:27:40.377Z,100995.59
2018-12-18T04:30:24.158Z,100996.08
2018-12-18T04:32:53.997Z,100998.72
2018-12-18T04:35:25.893Z,100994.33
2018-12-18T04:37:55.555Z,100992.70
2018-12-18T04:40:25.228Z,100990.27
2018-12-18T04:42:54.903Z,100983.02
2018-12-18T04:45:24.636Z,100985.22
2018-12-18T04:47:54.397Z,100967.48
2018-12-18T04:50:24.209Z,100976.80
2018-12-18T04:52:53.949Z,100966.55
2018-12-18T04:55:23.653Z,100968.58
2018-12-18T04:57:53.309Z,100974.78
2018-12-18T05:00:23.067Z,100978.87
2018-12-18T05:02:52.742Z,100985.09
2018-12-18T05:05:22.471Z,100980.97
2018-12-18T05:07:52.206Z,100980.55
2018-12-18T05:10:21.870Z,100982.73
2018-12-18T05:12:51.679Z,100971.13
2018-12-18T05:15:21.473Z,100973.27
2018-12-18T05:17:51.128Z,100976.95
2018-12-18T05:20:20.930Z,100971.80
2018-12-18T05:22:50.681Z,100965.20
2018-12-18T05:25:20.456Z,100962.11
2018-12-18T05:27:50.121Z,100967.48
2018-12-18T05:30:19.914Z,100970.78
2018-12-18T05:32:49.647Z,100978.41
2018-12-18T05:35:19.486Z,100983.91
2018-12-18T05:37:49.180Z,100979.27
2018-12-18T05:40:19.080Z,100987.88
2018-12-18T05:42:48.733Z,100987.00
2018-12-18T05:45:18.409Z,100987.41
2018-12-18T05:47:48.157Z,100980.33
2018-12-18T05:50:17.964Z,100981.06
2018-12-18T05:52:48.156Z,100984.69
2018-12-18T05:55:17.849Z,100986.64
2018-12-18T05:57:47.741Z,100987.48
2018-12-18T06:00:17.951Z,100978.31
2018-12-18T06:02:47.773Z,100976.22
2018-12-18T06:05:17.546Z,100975.08
2018-12-18T06:07:47.355Z,100973.94
2018-12-18T06:10:17.136Z,100975.36
2018-12-18T06:12:46.889Z,100974.64
2018-12-18T06:15:16.609Z,100969.75
2018-12-18T06:17:46.297Z,100971.27
2018-12-18T06:20:15.993Z,100969.50
2018-12-18T06:22:46.049Z,100973.30
2018-12-18T06:25:16.667Z,100979.11
2018-12-18T06:27:46.471Z,100985.97
2018-12-18T06:30:16.128Z,100979.28
2018-12-18T06:32:45.794Z,100974.41
2018-12-18T06:35:15.661Z,100975.52
2018-12-18T06:37:45.392Z,100975.70
2018-12-18T06:40:15.052Z,100969.48
2018-12-18T06:42:44.870Z,100966.62
2018-12-18T06:45:14.608Z,100969.64
2018-12-18T06:47:44.282Z,100969.31
2018-12-18T06:50:13.944Z,100975.87
2018-12-18T06:52:43.593Z,100978.59
2018-12-18T06:55:14.449Z,100974.30
2018-12-18T06:57:44.205Z,100973.38
2018-12-18T07:00:14.049Z,100973.45
2018-12-18T07:02:43.889Z,100976.37
2018-12-18T07:05:16.758Z,100959.25
2018-12-18T07:07:46.353Z,100968.56
2018-12-18T07:10:16.104Z,100962.00
2018-12-18T07:12:45.890Z,100962.96
2018-12-18T07:15:15.568Z,100962.23
2018-12-18T07:17:45.367Z,100961.73
2018-12-18T07:20:15.116Z,100961.56
2018-12-18T07:22:44.776Z,100968.30
2018-12-18T07:25:14.453Z,100965.80
2018-12-18T07:27:44.245Z,100961.69
2018-12-18T07:30:14.095Z,100964.50
2018-12-18T07:32:43.957Z,100967.31
2018-12-18T07:35:13.994Z,100964.52
2018-12-18T07:37:43.877Z,100974.59
2018-12-18T07:40:13.657Z,100977.11
2018-12-18T07:42:43.345Z,100985.20
2018-12-18T07:45:13.100Z,100984.08
2018-12-18T07:47:42.797Z,100984.30
2018-12-18T07:50:12.639Z,100978.61
2018-12-18T07:52:42.309Z,100977.20
2018-12-18T07:55:12.096Z,100978.39
2018-12-18T07:57:41.987Z,100982.41
2018-12-18T08:00:11.757Z,100977.38
2018-12-18T08:02:42.204Z,100975.77
2018-12-18T08:05:11.976Z,100975.67
2018-12-18T08:07:41.761Z,100967.95
2018-12-18T08:10:11.492Z,100965.38
2018-12-18T08:12:41.297Z,100974.41
2018-12-18T08:15:11.054Z,100968.05
2018-12-18T08:17:40.801Z,100967.62
2018-12-18T08:20:10.567Z,100969.00
2018-12-18T08:22:40.382Z,100969.35
2018-12-18T08:25:10.158Z,100969.69
2018-12-18T08:27:40.156Z,100975.58
2018-12-18T08:30:10.088Z,100973.34
2018-12-18T08:32:40.215Z,100968.87
2018-12-18T08:35:09.917Z,100973.30
2018-12-18T08:37:39.669Z,100968.47
2018-12-18T08:40:09.427Z,100964.93
2018-12-18T08:42:39.105Z,100966.22
2018-12-18T08:45:09.338Z,100957.75
2018-12-18T08:47:39.173Z,100950.85
2018-12-18T08:50:09.408Z,100940.38
2018-12-18T08:52:39.312Z,100934.85
2018-12-18T08:55:09.152Z,100933.50
2018-12-18T08:57:38.844Z,100932.94
2018-12-18T09:00:09.546Z,100931.66
2018-12-18T09:02:39.336Z,100923.65
2018-12-18T09:05:09.058Z,100914.41
2018-12-18T09:07:38.844Z,100916.70
2018-12-18T09:10:09.785Z,100921.35
2018-12-18T09:12:39.473Z,100921.35
2018-12-18T09:15:14.593Z,100923.89
2018-12-18T09:17:46.301Z,100901.44
2018-12-18T09:20:16.172Z,100895.62
2018-12-18T09:22:45.840Z,100898.08
2018-12-18T09:25:15.504Z,100899.59
2018-12-18T09:27:45.388Z,100902.13
2018-12-18T09:30:15.238Z,100898.25
2018-12-18T09:32:44.933Z,100898.38
2018-12-18T09:35:14.584Z,100901.81
2018-12-18T09:37:44.250Z,100900.00
2018-12-18T09:40:15.884Z,100892.53
2018-12-18T09:43:52.362Z,100887.42
2018-12-18T09:46:22.079Z,100866.52
2018-12-18T09:48:51.730Z,100858.13
2018-12-18T09:51:21.493Z,100853.10
2018-12-18T09:53:51.257Z,100849.63
2018-12-18T09:56:20.933Z,100845.19
2018-12-18T09:58:50.844Z,100847.87
2018-12-18T10:01:20.698Z,100840.02
2018-12-18T10:03:50.464Z,100839.41
2018-12-18T10:06:20.205Z,100842.60
2018-12-18T10:08:49.968Z,100841.31
2018-12-18T10:11:19.630Z,100836.47
2018-12-18T10:13:49.493Z,100835.18
2018-12-18T10:16:19.216Z,100823.28
2018-12-18T10:18:48.969Z,100813.52
2018-12-18T10:21:18.707Z,100804.52
2018-12-18T10:23:48.396Z,100804.50
2018-12-18T10:26:18.041Z,100790.00
2018-12-18T10:28:47.700Z,100782.97
2018-12-18T10:31:17.651Z,100778.39
2018-12-18T10:33:47.413Z,100771.52
2018-12-18T10:36:17.065Z,100765.50
2018-12-18T10:38:47.063Z,100751.08
2018-12-18T10:41:16.986Z,100746.79
2018-12-18T10:43:46.879Z,100752.20
2018-12-18T10:46:16.576Z,100748.50
2018-12-18T10:48:46.364Z,100747.95
2018-12-18T10:51:16.371Z,100739.87
2018-12-18T10:53:46.405Z,100736.14
2018-12-18T10:56:17.073Z,100733.20
2018-12-18T10:58:46.778Z,100725.48
2018-12-18T11:01:22.088Z,100721.14
2018-12-18T11:03:51.757Z,100720.01
2018-12-18T11:06:21.550Z,100703.44
2018-12-18T11:08:51.354Z,100704.64
2018-12-18T11:11:20.992Z,100705.77
2018-12-18T11:13:50.757Z,100708.91
2018-12-18T11:16:20.401Z,100701.23
2018-12-18T11:18:50.153Z,100693.08
2018-12-18T11:21:19.837Z,100694.37
2018-12-18T11:23:49.592Z,100691.84
2018-12-18T11:26:19.329Z,100694.98
2018-12-18T11:28:49.113Z,100694.11
2018-12-18T11:31:18.750Z,100689.41
2018-12-18T11:33:48.427Z,100685.23
2018-12-18T11:36:18.148Z,100679.34
2018-12-18T11:38:47.864Z,100665.44
2018-12-18T11:41:17.572Z,100670.78
2018-12-18T11:43:47.233Z,100683.67
2018-12-18T11:46:16.881Z,100680.42
2018-12-18T11:48:46.596Z,100663.29
2018-12-18T11:51:17.455Z,100650.22
2018-12-18T11:53:47.214Z,100651.84
2018-12-18T11:56:16.922Z,100664.94
2018-12-18T11:58:46.573Z,100652.63
2018-12-18T12:01:16.376Z,100631.85
2018-12-18T12:03:46.133Z,100629.22
2018-12-18T12:06:23.067Z,100619.46
2018-12-18T12:08:49.465Z,100608.23
2018-12-18T12:11:19.245Z,100596.19
2018-12-18T12:13:49.062Z,100594.16
2018-12-18T12:16:18.713Z,100597.72
2018-12-18T12:18:49.608Z,100588.64
2018-12-18T12:21:19.404Z,100596.59
2018-12-18T12:23:49.201Z,100584.98
2018-12-18T12:26:24.102Z,100596.58
2018-12-18T12:28:53.824Z,100593.14
2018-12-18T12:31:23.708Z,100588.87
2018-12-18T12:33:53.448Z,100586.57
2018-12-18T12:36:29.460Z,100585.89
2018-12-18T12:38:54.872Z,100589.37
2018-12-18T12:41:24.512Z,100578.34
2018-12-18T12:43:54.195Z,100574.67
2018-12-18T12:46:24.007Z,100577.59
2018-12-18T12:48:55.631Z,100575.53
2018-12-18T12:51:25.289Z,100561.78
2018-12-18T12:53:55.094Z,100559.41
2018-12-18T12:56:24.788Z,100556.58
2018-12-18T12:58:54.437Z,100554.16
2018-12-18T13:01:24.194Z,100549.47
2018-12-18T13:03:53.889Z,100545.02
2018-12-18T13:06:23.561Z,100547.00
2018-12-18T13:08:53.315Z,100544.09
2018-12-18T13:11:23.073Z,100534.09
2018-12-18T13:13:52.761Z,100529.92
2018-12-18T13:16:22.424Z,100521.09
2018-12-18T13:18:53.302Z,100520.60
2018-12-18T13:21:23.284Z,100514.30
2018-12-18T13:23:53.281Z,100510.55
2018-12-18T13:26:23.044Z,100505.89
2018-12-18T13:28:52.848Z,100498.54
2018-12-18T13:31:22.495Z,100496.02
2018-12-18T13:33:52.243Z,100491.95
2018-12-18T13:36:22.061Z,100487.75
2018-12-18T13:38:51.890Z,100481.66
2018-12-18T13:41:21.581Z,100475.42
2018-12-18T13:43:51.418Z,100480.71
2018-12-18T13:46:21.073Z,100464.05
2018-12-18T13:48:50.781Z,100455.33
2018-12-18T13:51:20.599Z,100462.29
2018-12-18T13:53:50.285Z,100461.48
2018-12-18T13:56:19.940Z,100453.74
2018-12-18T13:58:49.596Z,100450.63
2018-12-18T14:01:19.361Z,100446.87
2018-12-18T14:03:49.025Z,100445.89
2018-12-18T14:06:18.705Z,100446.83
2018-12-18T14:08:48.461Z,100441.65
2018-12-18T14:11:18.268Z,100431.25
2018-12-18T14:13:47.930Z,100428.83
2018-12-18T14:16:17.696Z,100426.70
2018-12-18T14:18:47.407Z,100412.34
2018-12-18T14:21:17.666Z,100418.55
2018-12-18T14:23:47.379Z,100410.25
2018-12-18T14:26:17.056Z,100412.91
2018-12-18T14:28:46.799Z,100404.75
2018-12-18T14:31:16.457Z,100395.42
2018-12-18T14:33:46.101Z,100398.73
2018-12-18T14:36:15.889Z,100400.72
2018-12-18T14:38:45.588Z,100393.39
2018-12-18T14:41:15.413Z,100388.05
2018-12-18T14:43:45.737Z,100386.37
2018-12-18T14:46:15.423Z,100376.93
2018-12-18T14:48:45.072Z,100367.53
2018-12-18T14:51:14.771Z,100360.25
2018-12-18T14:53:45.037Z,100361.16
2018-12-18T14:56:14.796Z,100357.74
2018-12-18T14:58:44.646Z,100358.21
2018-12-18T15:01:14.356Z,100349.42
2018-12-18T15:03:44.433Z,100347.80
2018-12-18T15:06:14.264Z,100343.19
2018-12-18T15:08:43.963Z,100345.94
2018-12-18T15:11:13.678Z,100344.07
2018-12-18T15:13:43.434Z,100336.72
2018-12-18T15:16:13.215Z,100340.92
2018-12-18T15:18:42.857Z,100336.04
2018-12-18T15:21:12.528Z,100331.13
2018-12-18T15:23:42.252Z,100328.97
2018-12-18T15:26:11.928Z,100333.68
2018-12-18T15:28:41.649Z,100334.52
2018-12-18T15:31:11.350Z,100326.02
2018-12-18T15:33:41.268Z,100329.98
2018-12-18T15:36:11.002Z,100333.48
2018-12-18T15:38:40.760Z,100327.41
2018-12-18T15:41:10.410Z,100337.18
2018-12-18T15:43:40.100Z,100330.48
2018-12-18T15:46:09.952Z,100325.33
2018-12-18T15:48:39.624Z,100321.45
2018-12-18T15:51:09.292Z,100320.39
2018-12-18T15:53:39.077Z,100317.81
2018-12-18T15:56:08.786Z,100308.25
2018-12-18T15:58:38.421Z,100309.21
2018-12-18T16:01:08.125Z,100306.17
2018-12-18T16:03:37.819Z,100295.86
2018-12-18T16:06:07.694Z,100289.80
2018-12-18T16:08:37.360Z,100289.11
2018-12-18T16:11:07.269Z,100291.39
2018-12-18T16:13:36.926Z,100298.83
2018-12-18T16:16:06.969Z,100306.23
2018-12-18T16:18:36.785Z,100312.15
2018-12-18T16:21:06.664Z,100313.05
2018-12-18T16:23:36.325Z,100321.87
2018-12-18T16:26:06.033Z,100326.38
2018-12-18T16:28:35.713Z,100332.31
2018-12-18T16:31:05.361Z,100329.13
2018-12-18T16:33:35.026Z,100327.51
2018-12-18T16:36:04.714Z,100318.65
2018-12-18T16:38:34.404Z,100308.73
2018-12-18T16:41:04.137Z,100299.55
2018-12-18T16:43:33.827Z,100298.48
2018-12-18T16:46:03.594Z,100290.20
2018-12-18T16:48:33.443Z,100286.98
2018-12-18T16:51:03.109Z,100284.16
2018-12-18T16:53:32.955Z,100276.48
2018-12-18T16:56:02.758Z,100262.52
2018-12-18T16:58:32.474Z,100273.72
2018-12-18T17:01:02.112Z,100266.72
2018-12-18T17:03:32.037Z,100274.16
2018-12-18T17:06:01.947Z,100267.41
2018-12-18T17:08:32.252Z,100276.39
2018-12-18T17:11:01.946Z,100279.95
2018-12-18T17:13:31.697Z,100278.84
2018-12-18T17:16:01.446Z,100289.46
2018-12-18T17:18:31.289Z,100290.71
2018-12-18T17:21:01.072Z,100290.86
2018-12-18T17:23:30.857Z,100290.28
2018-12-18T17:26:01.516Z,100285.66
2018-12-18T17:28:31.350Z,100298.63
2018-12-18T17:31:01.180Z,100304.25
2018-12-18T17:33:31.204Z,100299.23
2018-12-18T17:36:00.955Z,100300.81
2018-12-18T17:38:30.691Z,100293.63
2018-12-18T17:41:00.383Z,100298.99
2018-12-18T17:43:30.483Z,100305.83
2018-12-18T17:46:00.121Z,100307.56
2018-12-18T17:48:29.896Z,100310.08
2018-12-18T17:50:59.545Z,100314.34
2018-12-18T17:53:29.199Z,100313.94
2018-12-18T17:55:58.854Z,100309.81
2018-12-18T17:58:28.492Z,100316.00
2018-12-18T18:00:58.242Z,100313.70
2018-12-18T18:03:27.886Z,100312.09
2018-12-18T18:05:57.654Z,100319.85
2018-12-18T18:08:27.640Z,100325.61
2018-12-18T18:10:57.389Z,100335.87
2018-12-18T18:13:27.164Z,100341.51
2018-12-18T18:15:57.925Z,100333.82
2018-12-18T18:18:27.781Z,100323.23
2018-12-18T18:20:57.569Z,100303.34
2018-12-18T18:23:27.231Z,100289.78
2018-12-18T18:25:56.985Z,100286.39
2018-12-18T18:28:26.725Z,100277.57
2018-12-18T18:30:56.511Z,100264.65
2018-12-18T18:33:26.185Z,100249.09
2018-12-18T18:35:56.970Z,100242.75
2018-12-18T18:38:26.620Z,100232.09
2018-12-18T18:40:56.266Z,100218.27
2018-12-18T18:43:26.004Z,100219.08
2018-12-18T18:45:55.756Z,100212.23
2018-12-18T18:48:25.473Z,100204.78
2018-12-18T18:50:55.112Z,100200.52
2018-12-18T18:53:24.781Z,100194.45
2018-12-18T18:55:54.417Z,100180.06
2018-12-18T18:58:24.069Z,100164.73
2018-12-18T19:00:54.745Z,100163.39
2018-12-18T19:03:24.433Z,100159.64
2018-12-18T19:05:54.299Z,100157.45
2018-12-18T19:08:24.155Z,100148.73
2018-12-18T19:10:53.849Z,100153.42
2018-12-18T19:13:23.518Z,100137.48
2018-12-18T19:15:53.261Z,100148.20
2018-12-18T19:18:23.008Z,100138.33
2018-12-18T19:20:52.693Z,100131.33
2018-12-18T19:23:22.368Z,100136.94
2018-12-18T19:25:52.159Z,100132.08
2018-12-18T19:28:21.962Z,100128.27
2018-12-18T19:30:51.720Z,100134.47
2018-12-18T19:33:21.499Z,100133.95
2018-12-18T19:35:51.657Z,100131.23
2018-12-18T19:38:21.448Z,100133.82
2018-12-18T19:40:51.140Z,100132.46
2018-12-18T19:43:20.882Z,100121.08
2018-12-18T19:45:50.706Z,100124.97
2018-12-18T19:48:20.704Z,100111.46
2018-12-18T19:50:50.450Z,100116.57
2018-12-18T19:53:20.116Z,100120.20
2018-12-18T19:55:49.961Z,100123.48
2018-12-18T19:58:19.926Z,100117.16
2018-12-18T20:00:49.624Z,100118.69
2018-12-18T20:03:19.306Z,100130.29
2018-12-18T20:05:49.010Z,100130.38
2018-12-18T20:08:18.684Z,100137.67
2018-12-18T20:10:48.405Z,100141.13
2018-12-18T20:13:19.200Z,100138.57
2018-12-18T20:15:49.061Z,100145.53
2018-12-18T20:18:19.869Z,100148.27
2018-12-18T20:20:49.642Z,100143.35
2018-12-18T20:23:19.341Z,100152.50
2018-12-18T20:25:49.234Z,100143.33
2018-12-18T20:28:18.924Z,100130.89
2018-12-18T20:30:48.613Z,100135.55
2018-12-18T20:33:18.361Z,100128.23
2018-12-18T20:35:48.006Z,100125.52
2018-12-18T20:38:17.842Z,100131.66
2018-12-18T20:40:47.493Z,100123.17
2018-12-18T20:43:17.141Z,100128.95
2018-12-18T20:45:46.920Z,100128.55
2018-12-18T20:48:16.707Z,100128.55
2018-12-18T20:50:46.353Z,100127.27
2018-12-18T20:53:16.085Z,100116.41
2018-12-18T20:55:45.775Z,100133.62
2018-12-18T20:58:15.561Z,100110.59
2018-12-18T21:00:45.233Z,100114.61
2018-12-18T21:03:15.001Z,100105.20
2018-12-18T21:05:44.701Z,100102.01
2018-12-18T21:08:14.460Z,100102.10
2018-12-18T21:10:44.143Z,100095.33
2018-12-18T21:13:19.185Z,100098.06
2018-12-18T21:15:48.856Z,100092.22
2018-12-18T21:18:18.631Z,100075.62
2018-12-18T21:20:48.400Z,100070.11
2018-12-18T21:23:18.142Z,100075.64
2018-12-18T21:25:47.969Z,100073.12
2018-12-18T21:28:17.668Z,100069.11
2018-12-18T21:30:47.493Z,100073.91
2018-12-18T21:33:17.140Z,100062.05
2018-12-18T21:35:46.797Z,100071.39
2018-12-18T21:38:16.446Z,100077.44
2018-12-18T21:40:46.245Z,100078.91
2018-12-18T21:43:15.898Z,100078.28
2018-12-18T21:45:45.582Z,100075.47
2018-12-18T21:48:15.228Z,100064.65
2018-12-18T21:50:44.886Z,100056.47
2018-12-18T21:53:14.617Z,100052.81
2018-12-18T21:55:44.280Z,100042.81
2018-12-18T21:58:13.957Z,100037.52
2018-12-18T22:00:43.651Z,100027.43
2018-12-18T22:03:13.520Z,100012.20
2018-12-18T22:05:43.401Z,100011.27
2018-12-18T22:08:13.112Z,100009.59
2018-12-18T22:10:42.928Z,99997.41
2018-12-18T22:13:12.753Z,99996.88
2018-12-18T22:15:42.569Z,99999.23
2018-12-18T22:18:12.259Z,99990.97
2018-12-18T22:20:41.924Z,99993.94
2018-12-18T22:23:11.637Z,99994.23
2018-12-18T22:25:41.321Z,100000.83
2018-12-18T22:28:11.095Z,99996.35
2018-12-18T22:30:40.753Z,99996.66
2018-12-18T22:33:10.608Z,99992.47
2018-12-18T22:35:40.264Z,99989.53
2018-12-18T22:38:10.001Z,99989.53
2018-12-18T22:40:39.654Z,99995.28
2018-12-18T22:43:09.373Z,99997.77
2018-12-18T22:45:39.233Z,99999.59
2018-12-18T22:48:08.872Z,100000.34
2018-12-18T22:50:38.542Z,100004.26
2018-12-18T22:53:08.194Z,99997.17
2018-12-18T22:55:44.664Z,100007.70
2018-12-18T22:58:10.477Z,100001.62
2018-12-18T23:00:45.692Z,100004.20
2018-12-18T23:03:17.305Z,100003.56
2018-12-18T23:05:47.315Z,100000.64
2018-12-18T23:08:17.213Z,100003.66
2018-12-18T23:10:47.168Z,99998.86
2018-12-18T23:13:23.274Z,99990.79
2018-12-18T23:15:53.054Z,99983.16
2018-12-18T23:18:22.866Z,99980.55
2018-12-18T23:20:52.522Z,99979.30
2018-12-18T23:23:22.378Z,99981.48
2018-12-18T23:25:52.147Z,99974.00
2018-12-18T23:28:21.897Z,99977.77
2018-12-18T23:30:51.713Z,99984.83
2018-12-18T23:33:21.357Z,99983.32
2018-12-18T23:35:51.217Z,99987.34
2018-12-18T23:38:21.068Z,99992.09
2018-12-18T23:40:51.676Z,99999.63
2018-12-18T23:43:23.257Z,99999.08
2018-12-18T23:45:52.992Z,99998.84
2018-12-18T23:48:22.672Z,100007.02
2018-12-18T23:50:52.470Z,99996.72
2018-12-18T23:53:22.179Z,100002.48
2018-12-18T23:55:51.932Z,100007.03
2018-12-18T23:58:21.604Z,100004.40
